sensor_id;sensor_type;location;lat;lon;timestamp;P1;durP1;ratioP1;P2;durP2;ratioP2
39242;SDS011;29823;47.404;8.566;2022-09-06T00:01:17;14.65;;;6.38;;
39242;SDS011;29823;47.404;8.566;2022-09-06T00:03:47;12.43;;;6.20;;
39242;SDS011;29823;47.404;8.566;2022-09-06T00:06:16;9.10;;;5.78;;
39242;SDS011;29823;47.404;8.566;2022-09-06T00:08:45;8.02;;;6.32;;
39242;SDS011;29823;47.404;8.566;2022-09-06T00:11:14;9.88;;;6.13;;
39242;SDS011;29823;47.404;8.566;2022-09-06T00:13:45;11.77;;;6.20;;
39242;SDS011;29823;47.404;8.566;2022-09-06T00:16:13;10.80;;;5.28;;
39242;SDS011;29823;47.404;8.566;2022-09-06T00:18:43;9.82;;;5.47;;
39242;SDS011;29823;47.404;8.566;2022-09-06T00:21:12;9.18;;;6.65;;
39242;SDS011;29823;47.404;8.566;2022-09-06T00:23:42;14.35;;;6.30;;
39242;SDS011;29823;47.404;8.566;2022-09-06T00:26:10;9.93;;;6.05;;
39242;SDS011;29823;47.404;8.566;2022-09-06T00:28:38;10.98;;;6.97;;
39242;SDS011;29823;47.404;8.566;2022-09-06T00:31:08;10.48;;;6.22;;
39242;SDS011;29823;47.404;8.566;2022-09-06T00:33:37;8.25;;;6.25;;
39242;SDS011;29823;47.404;8.566;2022-09-06T00:36:05;13.05;;;6.00;;
39242;SDS011;29823;47.404;8.566;2022-09-06T00:38:34;10.48;;;6.35;;
39242;SDS011;29823;47.404;8.566;2022-09-06T00:41:02;7.35;;;5.97;;
39242;SDS011;29823;47.404;8.566;2022-09-06T00:43:30;11.43;;;6.40;;
39242;SDS011;29823;47.404;8.566;2022-09-06T00:45:58;11.98;;;6.78;;
39242;SDS011;29823;47.404;8.566;2022-09-06T00:48:29;16.98;;;6.68;;
39242;SDS011;29823;47.404;8.566;2022-09-06T00:51:00;11.52;;;6.63;;
39242;SDS011;29823;47.404;8.566;2022-09-06T00:53:30;10.93;;;6.05;;
39242;SDS011;29823;47.404;8.566;2022-09-06T00:55:58;7.30;;;5.80;;
39242;SDS011;29823;47.404;8.566;2022-09-06T00:58:26;8.43;;;5.57;;
39242;SDS011;29823;47.404;8.566;2022-09-06T01:00:54;9.95;;;5.80;;
39242;SDS011;29823;47.404;8.566;2022-09-06T01:03:22;12.07;;;5.97;;
39242;SDS011;29823;47.404;8.566;2022-09-06T01:05:55;13.00;;;5.38;;
39242;SDS011;29823;47.404;8.566;2022-09-06T01:08:38;11.77;;;6.20;;
39242;SDS011;29823;47.404;8.566;2022-09-06T01:11:22;9.70;;;6.40;;
39242;SDS011;29823;47.404;8.566;2022-09-06T01:13:59;7.60;;;6.03;;
39242;SDS011;29823;47.404;8.566;2022-09-06T01:16:38;9.32;;;6.15;;
39242;SDS011;29823;47.404;8.566;2022-09-06T01:19:17;10.63;;;6.38;;
39242;SDS011;29823;47.404;8.566;2022-09-06T01:22:12;11.63;;;6.10;;
39242;SDS011;29823;47.404;8.566;2022-09-06T01:24:58;9.50;;;6.20;;
39242;SDS011;29823;47.404;8.566;2022-09-06T01:27:47;8.63;;;5.97;;
39242;SDS011;29823;47.404;8.566;2022-09-06T01:30:29;9.25;;;5.78;;
39242;SDS011;29823;47.404;8.566;2022-09-06T01:33:02;11.95;;;6.20;;
39242;SDS011;29823;47.404;8.566;2022-09-06T01:35:37;14.02;;;6.18;;
39242;SDS011;29823;47.404;8.566;2022-09-06T01:38:10;11.68;;;6.18;;
39242;SDS011;29823;47.404;8.566;2022-09-06T01:40:39;9.90;;;6.85;;
39242;SDS011;29823;47.404;8.566;2022-09-06T01:43:09;12.80;;;7.03;;
39242;SDS011;29823;47.404;8.566;2022-09-06T01:45:40;13.53;;;7.03;;
39242;SDS011;29823;47.404;8.566;2022-09-06T01:48:16;9.45;;;6.75;;
39242;SDS011;29823;47.404;8.566;2022-09-06T01:51:03;13.82;;;6.65;;
39242;SDS011;29823;47.404;8.566;2022-09-06T01:53:43;10.88;;;6.30;;
39242;SDS011;29823;47.404;8.566;2022-09-06T01:56:23;19.20;;;7.40;;
39242;SDS011;29823;47.404;8.566;2022-09-06T02:01:59;12.65;;;7.03;;
39242;SDS011;29823;47.404;8.566;2022-09-06T02:04:35;14.13;;;6.45;;
39242;SDS011;29823;47.404;8.566;2022-09-06T02:07:12;11.02;;;6.35;;
39242;SDS011;29823;47.404;8.566;2022-09-06T02:09:45;15.88;;;6.47;;
39242;SDS011;29823;47.404;8.566;2022-09-06T02:12:18;11.65;;;6.90;;
39242;SDS011;29823;47.404;8.566;2022-09-06T02:14:51;16.88;;;6.47;;
39242;SDS011;29823;47.404;8.566;2022-09-06T02:17:23;11.45;;;6.45;;
39242;SDS011;29823;47.404;8.566;2022-09-06T02:22:26;13.85;;;6.15;;
39242;SDS011;29823;47.404;8.566;2022-09-06T02:24:57;7.85;;;5.43;;
39242;SDS011;29823;47.404;8.566;2022-09-06T02:27:27;11.38;;;5.85;;
39242;SDS011;29823;47.404;8.566;2022-09-06T02:29:57;21.92;;;14.07;;
39242;SDS011;29823;47.404;8.566;2022-09-06T02:32:28;12.13;;;6.03;;
39242;SDS011;29823;47.404;8.566;2022-09-06T02:34:59;13.13;;;6.07;;
39242;SDS011;29823;47.404;8.566;2022-09-06T02:37:35;7.85;;;5.45;;
39242;SDS011;29823;47.404;8.566;2022-09-06T02:40:03;9.77;;;6.38;;
39242;SDS011;29823;47.404;8.566;2022-09-06T02:42:31;9.13;;;5.60;;
39242;SDS011;29823;47.404;8.566;2022-09-06T02:45:00;12.45;;;5.95;;
39242;SDS011;29823;47.404;8.566;2022-09-06T02:47:30;10.02;;;6.38;;
39242;SDS011;29823;47.404;8.566;2022-09-06T02:49:58;10.75;;;5.50;;
39242;SDS011;29823;47.404;8.566;2022-09-06T02:52:26;12.80;;;5.80;;
39242;SDS011;29823;47.404;8.566;2022-09-06T02:54:53;9.45;;;6.45;;
39242;SDS011;29823;47.404;8.566;2022-09-06T02:57:21;12.65;;;5.75;;
39242;SDS011;29823;47.404;8.566;2022-09-06T02:59:49;8.73;;;5.53;;
39242;SDS011;29823;47.404;8.566;2022-09-06T03:02:18;9.80;;;5.75;;
39242;SDS011;29823;47.404;8.566;2022-09-06T03:04:46;7.63;;;5.65;;
39242;SDS011;29823;47.404;8.566;2022-09-06T03:07:14;11.25;;;4.68;;
39242;SDS011;29823;47.404;8.566;2022-09-06T03:09:42;10.20;;;4.85;;
39242;SDS011;29823;47.404;8.566;2022-09-06T03:12:10;8.90;;;4.85;;
39242;SDS011;29823;47.404;8.566;2022-09-06T03:14:37;14.05;;;5.45;;
39242;SDS011;29823;47.404;8.566;2022-09-06T03:17:06;10.65;;;5.28;;
39242;SDS011;29823;47.404;8.566;2022-09-06T03:19:35;12.82;;;5.30;;
39242;SDS011;29823;47.404;8.566;2022-09-06T03:22:03;8.98;;;5.30;;
39242;SDS011;29823;47.404;8.566;2022-09-06T03:24:31;7.00;;;5.13;;
39242;SDS011;29823;47.404;8.566;2022-09-06T03:26:59;8.35;;;4.85;;
39242;SDS011;29823;47.404;8.566;2022-09-06T03:29:26;8.20;;;4.78;;
39242;SDS011;29823;47.404;8.566;2022-09-06T03:31:54;10.32;;;5.15;;
39242;SDS011;29823;47.404;8.566;2022-09-06T03:34:22;11.02;;;4.78;;
39242;SDS011;29823;47.404;8.566;2022-09-06T03:36:51;7.38;;;5.20;;
39242;SDS011;29823;47.404;8.566;2022-09-06T03:39:19;7.07;;;4.63;;
39242;SDS011;29823;47.404;8.566;2022-09-06T03:41:47;4.97;;;4.47;;
39242;SDS011;29823;47.404;8.566;2022-09-06T03:44:15;7.45;;;4.65;;
39242;SDS011;29823;47.404;8.566;2022-09-06T03:46:43;5.85;;;4.55;;
39242;SDS011;29823;47.404;8.566;2022-09-06T03:49:11;9.48;;;5.30;;
39242;SDS011;29823;47.404;8.566;2022-09-06T03:51:39;11.88;;;5.20;;
39242;SDS011;29823;47.404;8.566;2022-09-06T03:54:08;6.03;;;5.25;;
39242;SDS011;29823;47.404;8.566;2022-09-06T03:56:36;9.23;;;5.57;;
39242;SDS011;29823;47.404;8.566;2022-09-06T03:59:04;8.30;;;4.80;;
39242;SDS011;29823;47.404;8.566;2022-09-06T04:01:32;10.65;;;4.43;;
39242;SDS011;29823;47.404;8.566;2022-09-06T04:04:00;6.70;;;4.47;;
39242;SDS011;29823;47.404;8.566;2022-09-06T04:06:28;8.75;;;4.88;;
39242;SDS011;29823;47.404;8.566;2022-09-06T04:08:56;8.27;;;4.47;;
39242;SDS011;29823;47.404;8.566;2022-09-06T04:11:25;15.75;;;5.05;;
39242;SDS011;29823;47.404;8.566;2022-09-06T04:13:53;8.07;;;4.82;;
39242;SDS011;29823;47.404;8.566;2022-09-06T04:16:20;9.05;;;5.30;;
39242;SDS011;29823;47.404;8.566;2022-09-06T04:18:48;9.55;;;5.30;;
39242;SDS011;29823;47.404;8.566;2022-09-06T04:21:16;8.00;;;5.35;;
39242;SDS011;29823;47.404;8.566;2022-09-06T04:23:44;6.43;;;4.95;;
39242;SDS011;29823;47.404;8.566;2022-09-06T04:26:12;7.95;;;4.90;;
39242;SDS011;29823;47.404;8.566;2022-09-06T04:28:41;9.25;;;5.00;;
39242;SDS011;29823;47.404;8.566;2022-09-06T04:31:09;9.60;;;5.35;;
39242;SDS011;29823;47.404;8.566;2022-09-06T04:33:37;11.50;;;5.53;;
39242;SDS011;29823;47.404;8.566;2022-09-06T04:36:05;7.05;;;5.00;;
39242;SDS011;29823;47.404;8.566;2022-09-06T04:38:35;5.78;;;4.93;;
39242;SDS011;29823;47.404;8.566;2022-09-06T04:41:04;10.45;;;4.78;;
39242;SDS011;29823;47.404;8.566;2022-09-06T04:43:33;7.03;;;4.43;;
39242;SDS011;29823;47.404;8.566;2022-09-06T04:46:05;4.43;;;4.00;;
39242;SDS011;29823;47.404;8.566;2022-09-06T04:48:37;6.43;;;4.30;;
39242;SDS011;29823;47.404;8.566;2022-09-06T04:51:05;11.63;;;5.57;;
39242;SDS011;29823;47.404;8.566;2022-09-06T04:53:33;9.60;;;4.60;;
39242;SDS011;29823;47.404;8.566;2022-09-06T04:56:01;10.80;;;4.10;;
39242;SDS011;29823;47.404;8.566;2022-09-06T04:58:29;9.27;;;4.60;;
39242;SDS011;29823;47.404;8.566;2022-09-06T05:00:57;9.35;;;4.55;;
39242;SDS011;29823;47.404;8.566;2022-09-06T05:03:26;7.68;;;4.40;;
39242;SDS011;29823;47.404;8.566;2022-09-06T05:06:02;9.60;;;4.68;;
39242;SDS011;29823;47.404;8.566;2022-09-06T05:08:35;7.75;;;3.85;;
39242;SDS011;29823;47.404;8.566;2022-09-06T05:11:04;7.70;;;3.70;;
39242;SDS011;29823;47.404;8.566;2022-09-06T05:13:33;6.15;;;3.75;;
39242;SDS011;29823;47.404;8.566;2022-09-06T05:16:02;6.03;;;4.25;;
39242;SDS011;29823;47.404;8.566;2022-09-06T05:18:33;6.60;;;4.45;;
39242;SDS011;29823;47.404;8.566;2022-09-06T05:21:01;10.50;;;4.20;;
39242;SDS011;29823;47.404;8.566;2022-09-06T05:23:29;10.77;;;3.83;;
39242;SDS011;29823;47.404;8.566;2022-09-06T05:25:57;8.93;;;4.30;;
39242;SDS011;29823;47.404;8.566;2022-09-06T05:28:25;11.25;;;4.20;;
39242;SDS011;29823;47.404;8.566;2022-09-06T05:31:03;8.23;;;4.80;;
39242;SDS011;29823;47.404;8.566;2022-09-06T05:33:33;18.67;;;5.65;;
39242;SDS011;29823;47.404;8.566;2022-09-06T05:36:01;7.45;;;4.47;;
39242;SDS011;29823;47.404;8.566;2022-09-06T05:38:29;6.05;;;4.47;;
39242;SDS011;29823;47.404;8.566;2022-09-06T05:40:57;5.88;;;4.10;;
39242;SDS011;29823;47.404;8.566;2022-09-06T05:43:25;8.55;;;4.20;;
39242;SDS011;29823;47.404;8.566;2022-09-06T05:45:53;9.70;;;4.82;;
39242;SDS011;29823;47.404;8.566;2022-09-06T05:48:21;7.75;;;5.47;;
39242;SDS011;29823;47.404;8.566;2022-09-06T05:50:59;8.48;;;5.05;;
39242;SDS011;29823;47.404;8.566;2022-09-06T05:53:32;9.07;;;5.80;;
39242;SDS011;29823;47.404;8.566;2022-09-06T05:56:00;11.02;;;5.60;;
39242;SDS011;29823;47.404;8.566;2022-09-06T05:58:29;7.70;;;4.63;;
39242;SDS011;29823;47.404;8.566;2022-09-06T06:01:04;11.80;;;4.80;;
39242;SDS011;29823;47.404;8.566;2022-09-06T06:03:33;16.27;;;5.88;;
39242;SDS011;29823;47.404;8.566;2022-09-06T06:06:02;9.85;;;6.07;;
39242;SDS011;29823;47.404;8.566;2022-09-06T06:08:30;7.72;;;4.97;;
39242;SDS011;29823;47.404;8.566;2022-09-06T06:10:59;16.40;;;6.07;;
39242;SDS011;29823;47.404;8.566;2022-09-06T06:13:29;10.02;;;5.72;;
39242;SDS011;29823;47.404;8.566;2022-09-06T06:16:00;13.17;;;4.90;;
39242;SDS011;29823;47.404;8.566;2022-09-06T06:18:28;8.65;;;4.65;;
39242;SDS011;29823;47.404;8.566;2022-09-06T06:21:08;8.07;;;4.80;;
39242;SDS011;29823;47.404;8.566;2022-09-06T06:23:37;14.85;;;5.13;;
39242;SDS011;29823;47.404;8.566;2022-09-06T06:26:06;18.48;;;5.93;;
39242;SDS011;29823;47.404;8.566;2022-09-06T06:28:34;11.68;;;5.75;;
39242;SDS011;29823;47.404;8.566;2022-09-06T06:31:03;14.88;;;6.75;;
39242;SDS011;29823;47.404;8.566;2022-09-06T06:33:32;11.38;;;5.45;;
39242;SDS011;29823;47.404;8.566;2022-09-06T06:36:02;16.13;;;6.18;;
39242;SDS011;29823;47.404;8.566;2022-09-06T06:38:33;13.07;;;5.28;;
39242;SDS011;29823;47.404;8.566;2022-09-06T06:41:03;8.45;;;5.20;;
39242;SDS011;29823;47.404;8.566;2022-09-06T06:43:32;12.82;;;5.25;;
39242;SDS011;29823;47.404;8.566;2022-09-06T06:46:03;14.10;;;5.15;;
39242;SDS011;29823;47.404;8.566;2022-09-06T06:48:31;18.48;;;5.82;;
39242;SDS011;29823;47.404;8.566;2022-09-06T06:51:00;13.77;;;5.13;;
39242;SDS011;29823;47.404;8.566;2022-09-06T06:53:28;9.13;;;5.20;;
39242;SDS011;29823;47.404;8.566;2022-09-06T06:55:57;11.95;;;5.55;;
39242;SDS011;29823;47.404;8.566;2022-09-06T06:58:25;10.55;;;5.43;;
39242;SDS011;29823;47.404;8.566;2022-09-06T07:00:53;16.42;;;5.32;;
39242;SDS011;29823;47.404;8.566;2022-09-06T07:03:21;21.42;;;5.93;;
39242;SDS011;29823;47.404;8.566;2022-09-06T07:05:49;11.50;;;5.30;;
39242;SDS011;29823;47.404;8.566;2022-09-06T07:08:33;11.23;;;5.47;;
39242;SDS011;29823;47.404;8.566;2022-09-06T07:11:03;11.85;;;4.95;;
39242;SDS011;29823;47.404;8.566;2022-09-06T07:13:32;19.05;;;5.70;;
39242;SDS011;29823;47.404;8.566;2022-09-06T07:16:07;16.23;;;5.40;;
39242;SDS011;29823;47.404;8.566;2022-09-06T07:18:36;10.00;;;5.32;;
39242;SDS011;29823;47.404;8.566;2022-09-06T07:21:10;9.65;;;4.95;;
39242;SDS011;29823;47.404;8.566;2022-09-06T07:23:59;12.88;;;5.18;;
39242;SDS011;29823;47.404;8.566;2022-09-06T07:26:29;7.07;;;4.80;;
39242;SDS011;29823;47.404;8.566;2022-09-06T07:28:58;8.77;;;4.13;;
39242;SDS011;29823;47.404;8.566;2022-09-06T07:31:27;9.32;;;3.80;;
39242;SDS011;29823;47.404;8.566;2022-09-06T07:34:17;12.68;;;4.75;;
39242;SDS011;29823;47.404;8.566;2022-09-06T07:36:46;14.38;;;3.92;;
39242;SDS011;29823;47.404;8.566;2022-09-06T07:39:13;12.82;;;4.10;;
39242;SDS011;29823;47.404;8.566;2022-09-06T07:41:43;11.63;;;4.25;;
39242;SDS011;29823;47.404;8.566;2022-09-06T07:44:10;13.48;;;4.07;;
39242;SDS011;29823;47.404;8.566;2022-09-06T07:46:38;9.48;;;3.83;;
39242;SDS011;29823;47.404;8.566;2022-09-06T07:49:07;8.00;;;3.90;;
39242;SDS011;29823;47.404;8.566;2022-09-06T07:51:34;6.78;;;3.50;;
39242;SDS011;29823;47.404;8.566;2022-09-06T07:54:02;9.50;;;3.47;;
39242;SDS011;29823;47.404;8.566;2022-09-06T07:56:53;13.27;;;4.22;;
39242;SDS011;29823;47.404;8.566;2022-09-06T07:59:21;7.05;;;3.70;;
39242;SDS011;29823;47.404;8.566;2022-09-06T08:01:48;8.63;;;3.53;;
39242;SDS011;29823;47.404;8.566;2022-09-06T08:04:16;5.20;;;3.10;;
39242;SDS011;29823;47.404;8.566;2022-09-06T08:06:45;7.75;;;3.33;;
39242;SDS011;29823;47.404;8.566;2022-09-06T08:09:35;9.18;;;4.13;;
39242;SDS011;29823;47.404;8.566;2022-09-06T08:12:05;8.80;;;4.03;;
39242;SDS011;29823;47.404;8.566;2022-09-06T08:14:33;7.50;;;2.85;;
39242;SDS011;29823;47.404;8.566;2022-09-06T08:17:01;11.80;;;3.58;;
39242;SDS011;29823;47.404;8.566;2022-09-06T08:19:30;7.18;;;3.88;;
39242;SDS011;29823;47.404;8.566;2022-09-06T08:21:57;6.70;;;3.95;;
39242;SDS011;29823;47.404;8.566;2022-09-06T08:24:25;8.00;;;3.97;;
39242;SDS011;29823;47.404;8.566;2022-09-06T08:26:53;11.52;;;4.22;;
39242;SDS011;29823;47.404;8.566;2022-09-06T08:29:22;9.00;;;4.90;;
39242;SDS011;29823;47.404;8.566;2022-09-06T08:31:51;15.85;;;6.07;;
39242;SDS011;29823;47.404;8.566;2022-09-06T08:34:19;12.20;;;5.40;;
39242;SDS011;29823;47.404;8.566;2022-09-06T08:36:46;13.52;;;6.32;;
39242;SDS011;29823;47.404;8.566;2022-09-06T08:39:14;12.40;;;6.38;;
39242;SDS011;29823;47.404;8.566;2022-09-06T08:41:47;13.60;;;6.47;;
39242;SDS011;29823;47.404;8.566;2022-09-06T08:44:19;12.75;;;7.40;;
39242;SDS011;29823;47.404;8.566;2022-09-06T08:47:11;12.93;;;7.53;;
39242;SDS011;29823;47.404;8.566;2022-09-06T08:49:40;11.45;;;6.97;;
39242;SDS011;29823;47.404;8.566;2022-09-06T08:52:15;10.13;;;6.35;;
39242;SDS011;29823;47.404;8.566;2022-09-06T08:54:53;15.48;;;6.50;;
39242;SDS011;29823;47.404;8.566;2022-09-06T08:57:30;12.05;;;6.68;;
39242;SDS011;29823;47.404;8.566;2022-09-06T09:00:08;10.48;;;6.22;;
39242;SDS011;29823;47.404;8.566;2022-09-06T09:02:44;16.23;;;8.20;;
39242;SDS011;29823;47.404;8.566;2022-09-06T09:05:16;11.85;;;6.60;;
39242;SDS011;29823;47.404;8.566;2022-09-06T09:07:50;16.60;;;6.50;;
39242;SDS011;29823;47.404;8.566;2022-09-06T09:10:27;19.13;;;6.53;;
39242;SDS011;29823;47.404;8.566;2022-09-06T09:12:57;18.15;;;7.22;;
39242;SDS011;29823;47.404;8.566;2022-09-06T09:15:28;10.27;;;6.70;;
39242;SDS011;29823;47.404;8.566;2022-09-06T09:17:58;11.60;;;6.47;;
39242;SDS011;29823;47.404;8.566;2022-09-06T09:20:26;16.52;;;6.57;;
39242;SDS011;29823;47.404;8.566;2022-09-06T09:22:54;12.68;;;6.22;;
39242;SDS011;29823;47.404;8.566;2022-09-06T09:25:22;10.80;;;6.10;;
39242;SDS011;29823;47.404;8.566;2022-09-06T09:27:51;17.73;;;6.10;;
39242;SDS011;29823;47.404;8.566;2022-09-06T09:33:21;11.38;;;5.10;;
39242;SDS011;29823;47.404;8.566;2022-09-06T09:36:00;10.07;;;4.50;;
39242;SDS011;29823;47.404;8.566;2022-09-06T09:38:31;14.60;;;5.47;;
39242;SDS011;29823;47.404;8.566;2022-09-06T09:41:06;11.07;;;4.18;;
39242;SDS011;29823;47.404;8.566;2022-09-06T09:43:35;10.43;;;4.25;;
39242;SDS011;29823;47.404;8.566;2022-09-06T09:46:16;9.30;;;3.80;;
39242;SDS011;29823;47.404;8.566;2022-09-06T09:49:02;17.00;;;4.55;;
39242;SDS011;29823;47.404;8.566;2022-09-06T09:51:32;9.52;;;3.55;;
39242;SDS011;29823;47.404;8.566;2022-09-06T09:54:03;10.95;;;4.15;;
39242;SDS011;29823;47.404;8.566;2022-09-06T09:59:18;10.13;;;3.83;;
39242;SDS011;29823;47.404;8.566;2022-09-06T10:01:50;12.35;;;4.00;;
39242;SDS011;29823;47.404;8.566;2022-09-06T10:04:23;10.95;;;4.32;;
39242;SDS011;29823;47.404;8.566;2022-09-06T10:07:12;9.27;;;4.68;;
39242;SDS011;29823;47.404;8.566;2022-09-06T10:09:42;12.48;;;5.00;;
39242;SDS011;29823;47.404;8.566;2022-09-06T10:12:14;10.50;;;4.47;;
39242;SDS011;29823;47.404;8.566;2022-09-06T10:14:45;11.52;;;3.90;;
39242;SDS011;29823;47.404;8.566;2022-09-06T10:17:18;14.60;;;4.20;;
39242;SDS011;29823;47.404;8.566;2022-09-06T10:19:50;14.57;;;4.53;;
39242;SDS011;29823;47.404;8.566;2022-09-06T10:22:20;20.80;;;8.35;;
39242;SDS011;29823;47.404;8.566;2022-09-06T10:28:01;10.55;;;3.97;;
39242;SDS011;29823;47.404;8.566;2022-09-06T10:30:43;7.97;;;3.50;;
39242;SDS011;29823;47.404;8.566;2022-09-06T10:33:24;11.88;;;3.75;;
39242;SDS011;29823;47.404;8.566;2022-09-06T10:35:59;10.93;;;3.13;;
39242;SDS011;29823;47.404;8.566;2022-09-06T10:38:32;12.30;;;3.90;;
39242;SDS011;29823;47.404;8.566;2022-09-06T10:44:13;28.52;;;13.90;;
39242;SDS011;29823;47.404;8.566;2022-09-06T10:46:50;16.55;;;4.95;;
39242;SDS011;29823;47.404;8.566;2022-09-06T10:49:26;12.23;;;3.85;;
39242;SDS011;29823;47.404;8.566;2022-09-06T10:51:56;12.10;;;3.60;;
39242;SDS011;29823;47.404;8.566;2022-09-06T10:54:28;16.55;;;4.15;;
39242;SDS011;29823;47.404;8.566;2022-09-06T10:57:00;9.98;;;3.50;;
39242;SDS011;29823;47.404;8.566;2022-09-06T10:59:31;15.57;;;3.78;;
39242;SDS011;29823;47.404;8.566;2022-09-06T11:02:07;14.73;;;3.35;;
39242;SDS011;29823;47.404;8.566;2022-09-06T11:04:43;12.77;;;3.15;;
39242;SDS011;29823;47.404;8.566;2022-09-06T11:07:39;12.35;;;3.38;;
39242;SDS011;29823;47.404;8.566;2022-09-06T11:10:29;8.50;;;2.97;;
39242;SDS011;29823;47.404;8.566;2022-09-06T11:13:00;17.58;;;4.00;;
39242;SDS011;29823;47.404;8.566;2022-09-06T11:15:33;12.98;;;3.78;;
39242;SDS011;29823;47.404;8.566;2022-09-06T11:18:10;17.02;;;3.70;;
39242;SDS011;29823;47.404;8.566;2022-09-06T11:20:44;13.75;;;3.90;;
39242;SDS011;29823;47.404;8.566;2022-09-06T11:23:24;8.38;;;2.90;;
39242;SDS011;29823;47.404;8.566;2022-09-06T11:26:10;7.18;;;2.85;;
39242;SDS011;29823;47.404;8.566;2022-09-06T11:28:51;15.02;;;3.78;;
39242;SDS011;29823;47.404;8.566;2022-09-06T11:31:22;11.43;;;3.63;;
39242;SDS011;29823;47.404;8.566;2022-09-06T11:34:17;9.90;;;2.45;;
39242;SDS011;29823;47.404;8.566;2022-09-06T11:36:47;12.57;;;2.92;;
39242;SDS011;29823;47.404;8.566;2022-09-06T11:39:26;11.63;;;2.88;;
39242;SDS011;29823;47.404;8.566;2022-09-06T11:45:14;12.60;;;3.42;;
39242;SDS011;29823;47.404;8.566;2022-09-06T11:47:47;14.50;;;2.95;;
39242;SDS011;29823;47.404;8.566;2022-09-06T11:50:17;9.27;;;3.50;;
39242;SDS011;29823;47.404;8.566;2022-09-06T11:52:55;14.48;;;3.40;;
39242;SDS011;29823;47.404;8.566;2022-09-06T11:55:35;8.05;;;2.67;;
39242;SDS011;29823;47.404;8.566;2022-09-06T11:58:05;14.38;;;2.83;;
39242;SDS011;29823;47.404;8.566;2022-09-06T12:00:37;7.65;;;3.03;;
39242;SDS011;29823;47.404;8.566;2022-09-06T12:03:06;17.58;;;3.17;;
39242;SDS011;29823;47.404;8.566;2022-09-06T12:06:14;16.70;;;3.60;;
39242;SDS011;29823;47.404;8.566;2022-09-06T12:08:43;12.10;;;2.92;;
39242;SDS011;29823;47.404;8.566;2022-09-06T12:14:12;7.97;;;2.85;;
39242;SDS011;29823;47.404;8.566;2022-09-06T12:26:09;8.43;;;3.75;;
39242;SDS011;29823;47.404;8.566;2022-09-06T12:28:43;10.05;;;3.78;;
39242;SDS011;29823;47.404;8.566;2022-09-06T12:31:22;16.67;;;3.28;;
39242;SDS011;29823;47.404;8.566;2022-09-06T12:33:52;7.53;;;2.25;;
39242;SDS011;29823;47.404;8.566;2022-09-06T12:36:21;9.82;;;3.05;;
39242;SDS011;29823;47.404;8.566;2022-09-06T12:38:58;9.25;;;2.40;;
39242;SDS011;29823;47.404;8.566;2022-09-06T12:41:27;8.85;;;2.25;;
39242;SDS011;29823;47.404;8.566;2022-09-06T12:43:59;12.20;;;3.55;;
39242;SDS011;29823;47.404;8.566;2022-09-06T12:46:30;5.60;;;2.63;;
39242;SDS011;29823;47.404;8.566;2022-09-06T12:49:01;14.52;;;2.88;;
39242;SDS011;29823;47.404;8.566;2022-09-06T12:51:33;10.05;;;3.20;;
39242;SDS011;29823;47.404;8.566;2022-09-06T12:54:02;10.95;;;3.40;;
39242;SDS011;29823;47.404;8.566;2022-09-06T12:56:32;12.00;;;3.92;;
39242;SDS011;29823;47.404;8.566;2022-09-06T12:59:12;10.45;;;3.58;;
39242;SDS011;29823;47.404;8.566;2022-09-06T13:01:44;9.38;;;3.35;;
39242;SDS011;29823;47.404;8.566;2022-09-06T13:04:20;7.95;;;3.00;;
39242;SDS011;29823;47.404;8.566;2022-09-06T13:06:53;8.52;;;3.30;;
39242;SDS011;29823;47.404;8.566;2022-09-06T13:09:23;6.97;;;2.58;;
39242;SDS011;29823;47.404;8.566;2022-09-06T13:11:53;5.68;;;2.78;;
39242;SDS011;29823;47.404;8.566;2022-09-06T13:14:27;4.82;;;2.13;;
39242;SDS011;29823;47.404;8.566;2022-09-06T13:16:57;7.20;;;2.25;;
39242;SDS011;29823;47.404;8.566;2022-09-06T13:19:28;4.70;;;2.50;;
39242;SDS011;29823;47.404;8.566;2022-09-06T13:24:36;10.13;;;2.10;;
39242;SDS011;29823;47.404;8.566;2022-09-06T13:27:21;9.27;;;2.47;;
39242;SDS011;29823;47.404;8.566;2022-09-06T13:29:56;8.18;;;1.40;;
39242;SDS011;29823;47.404;8.566;2022-09-06T13:32:26;9.70;;;1.80;;
39242;SDS011;29823;47.404;8.566;2022-09-06T13:34:54;6.97;;;1.60;;
39242;SDS011;29823;47.404;8.566;2022-09-06T13:37:26;6.95;;;1.40;;
39242;SDS011;29823;47.404;8.566;2022-09-06T13:39:55;4.18;;;1.45;;
39242;SDS011;29823;47.404;8.566;2022-09-06T13:42:24;6.25;;;2.30;;
39242;SDS011;29823;47.404;8.566;2022-09-06T13:44:55;7.70;;;1.30;;
39242;SDS011;29823;47.404;8.566;2022-09-06T13:47:27;6.50;;;1.52;;
39242;SDS011;29823;47.404;8.566;2022-09-06T13:49:55;7.38;;;2.17;;
39242;SDS011;29823;47.404;8.566;2022-09-06T13:52:23;12.25;;;1.63;;
39242;SDS011;29823;47.404;8.566;2022-09-06T13:54:52;6.15;;;1.88;;
39242;SDS011;29823;47.404;8.566;2022-09-06T13:57:19;7.35;;;1.77;;
39242;SDS011;29823;47.404;8.566;2022-09-06T13:59:49;8.55;;;2.25;;
39242;SDS011;29823;47.404;8.566;2022-09-06T14:02:19;9.55;;;2.00;;
39242;SDS011;29823;47.404;8.566;2022-09-06T14:04:46;4.95;;;1.65;;
39242;SDS011;29823;47.404;8.566;2022-09-06T14:07:14;7.35;;;1.85;;
39242;SDS011;29823;47.404;8.566;2022-09-06T14:09:42;6.63;;;2.03;;
39242;SDS011;29823;47.404;8.566;2022-09-06T14:12:10;6.45;;;1.90;;
39242;SDS011;29823;47.404;8.566;2022-09-06T14:14:38;2.22;;;1.15;;
39242;SDS011;29823;47.404;8.566;2022-09-06T14:17:06;1.48;;;0.80;;
39242;SDS011;29823;47.404;8.566;2022-09-06T14:19:35;5.85;;;0.80;;
39242;SDS011;29823;47.404;8.566;2022-09-06T14:22:04;4.53;;;1.25;;
39242;SDS011;29823;47.404;8.566;2022-09-06T14:24:32;10.63;;;1.35;;
39242;SDS011;29823;47.404;8.566;2022-09-06T14:27:00;5.72;;;2.05;;
39242;SDS011;29823;47.404;8.566;2022-09-06T14:29:29;8.63;;;2.25;;
39242;SDS011;29823;47.404;8.566;2022-09-06T14:31:58;9.02;;;2.20;;
39242;SDS011;29823;47.404;8.566;2022-09-06T14:34:25;7.78;;;2.40;;
39242;SDS011;29823;47.404;8.566;2022-09-06T14:36:55;4.90;;;1.80;;
39242;SDS011;29823;47.404;8.566;2022-09-06T14:39:23;5.57;;;1.65;;
39242;SDS011;29823;47.404;8.566;2022-09-06T14:41:51;7.18;;;2.60;;
39242;SDS011;29823;47.404;8.566;2022-09-06T14:44:19;4.90;;;2.30;;
39242;SDS011;29823;47.404;8.566;2022-09-06T14:46:47;5.00;;;2.25;;
39242;SDS011;29823;47.404;8.566;2022-09-06T14:49:18;6.03;;;2.65;;
39242;SDS011;29823;47.404;8.566;2022-09-06T14:51:46;7.40;;;2.42;;
39242;SDS011;29823;47.404;8.566;2022-09-06T14:54:16;6.63;;;2.92;;
39242;SDS011;29823;47.404;8.566;2022-09-06T14:56:44;8.35;;;3.13;;
39242;SDS011;29823;47.404;8.566;2022-09-06T14:59:12;10.40;;;3.15;;
39242;SDS011;29823;47.404;8.566;2022-09-06T15:01:40;10.68;;;2.97;;
39242;SDS011;29823;47.404;8.566;2022-09-06T15:04:09;8.65;;;3.58;;
39242;SDS011;29823;47.404;8.566;2022-09-06T15:06:38;5.05;;;2.83;;
39242;SDS011;29823;47.404;8.566;2022-09-06T15:09:12;26.42;;;3.33;;
39242;SDS011;29823;47.404;8.566;2022-09-06T15:11:42;17.17;;;3.55;;
39242;SDS011;29823;47.404;8.566;2022-09-06T15:14:12;9.05;;;2.70;;
39242;SDS011;29823;47.404;8.566;2022-09-06T15:16:41;12.07;;;2.47;;
39242;SDS011;29823;47.404;8.566;2022-09-06T15:19:09;16.25;;;2.75;;
39242;SDS011;29823;47.404;8.566;2022-09-06T15:21:38;9.93;;;2.55;;
39242;SDS011;29823;47.404;8.566;2022-09-06T15:24:06;21.42;;;3.47;;
39242;SDS011;29823;47.404;8.566;2022-09-06T15:26:37;6.32;;;2.40;;
39242;SDS011;29823;47.404;8.566;2022-09-06T15:29:07;13.15;;;2.78;;
39242;SDS011;29823;47.404;8.566;2022-09-06T15:31:36;14.85;;;2.30;;
39242;SDS011;29823;47.404;8.566;2022-09-06T15:34:04;9.23;;;2.58;;
39242;SDS011;29823;47.404;8.566;2022-09-06T15:36:33;7.43;;;2.63;;
39242;SDS011;29823;47.404;8.566;2022-09-06T15:39:01;12.80;;;2.72;;
39242;SDS011;29823;47.404;8.566;2022-09-06T15:41:31;11.98;;;2.28;;